createdAt,value
2023-03-25T00:00:19.175Z,9.90
2023-03-25T00:02:49.223Z,9.90
2023-03-25T00:05:18.968Z,9.80
2023-03-25T00:07:48.419Z,9.80
2023-03-25T00:10:15.553Z,9.80
2023-03-25T00:12:45.360Z,9.80
2023-03-25T00:15:13.520Z,9.80
2023-03-25T04:30:19.475Z,9.80
2023-03-25T04:32:47.527Z,9.40
2023-03-25T04:35:19.236Z,9.40
2023-03-25T04:37:48.865Z,9.40
2023-03-25T04:40:18.951Z,9.40
2023-03-25T04:42:46.708Z,9.40
2023-03-25T04:45:16.842Z,9.40
2023-03-25T04:47:48.031Z,9.40
2023-03-25T04:50:28.159Z,9.40
2023-03-25T04:53:00.439Z,9.40
2023-03-25T04:55:27.910Z,9.30
2023-03-25T04:57:55.797Z,9.20
2023-03-25T05:00:25.266Z,9.30
2023-03-25T05:02:54.472Z,9.30
2023-03-25T05:05:23.668Z,9.30
2023-03-25T05:07:55.379Z,9.30
2023-03-25T05:10:24.164Z,9.30
2023-03-25T05:12:51.250Z,9.30
2023-03-25T05:15:18.252Z,9.30
2023-03-25T05:17:45.636Z,9.30
2023-03-25T05:20:14.532Z,9.30
2023-03-25T05:22:49.132Z,9.30
2023-03-25T05:25:16.021Z,9.20
2023-03-25T05:27:42.783Z,9.20
2023-03-25T05:30:11.957Z,9.20
2023-03-25T05:32:41.335Z,9.30
2023-03-25T05:35:08.922Z,9.30
2023-03-25T05:37:35.783Z,9.30
2023-03-25T05:40:02.597Z,9.30
2023-03-25T05:42:47.139Z,9.40
2023-03-25T05:45:15.882Z,9.30
2023-03-25T05:47:43.714Z,9.40
2023-03-25T05:50:10.837Z,9.40
2023-03-25T05:52:41.480Z,9.40
2023-03-25T05:55:15.817Z,9.40
2023-03-25T05:57:42.888Z,9.30
2023-03-25T06:00:13.472Z,9.30
2023-03-25T06:02:43.310Z,9.30
2023-03-25T06:05:14.028Z,9.30
2023-03-25T06:07:46.051Z,9.40
2023-03-25T06:10:17.105Z,9.30
2023-03-25T06:12:46.605Z,9.30
2023-03-25T06:15:33.433Z,9.30
2023-03-25T06:18:00.697Z,9.30
2023-03-25T06:20:27.977Z,9.30
2023-03-25T06:22:54.853Z,9.30
2023-03-25T06:25:21.865Z,9.30
2023-03-25T06:27:50.253Z,9.40
2023-03-25T06:30:20.428Z,9.40
2023-03-25T06:32:50.798Z,9.30
2023-03-25T06:35:20.603Z,9.30
2023-03-25T06:37:49.986Z,9.30
2023-03-25T06:40:17.372Z,9.30
2023-03-25T06:42:44.294Z,9.30
2023-03-25T06:45:12.001Z,9.30
2023-03-25T06:47:39.222Z,9.30
2023-03-25T06:50:07.918Z,9.30
2023-03-25T06:52:35.074Z,9.30
2023-03-25T06:55:02.087Z,9.30
2023-03-25T06:57:28.942Z,9.30
2023-03-25T06:59:55.764Z,9.30
2023-03-25T07:02:22.488Z,9.30
2023-03-25T07:04:49.351Z,9.30
2023-03-25T07:07:16.189Z,9.30
2023-03-25T07:09:43.014Z,9.30
2023-03-25T07:12:09.915Z,9.30
2023-03-25T07:14:36.740Z,9.30
2023-03-25T07:17:03.563Z,9.40
2023-03-25T07:19:30.553Z,9.30
2023-03-25T07:21:57.303Z,9.30
2023-03-25T07:24:24.121Z,9.30
2023-03-25T07:26:51.152Z,9.40
2023-03-25T07:29:18.038Z,9.30
2023-03-25T07:31:46.646Z,9.40
2023-03-25T07:34:13.587Z,9.40
2023-03-25T07:36:40.600Z,9.40
2023-03-25T07:39:07.989Z,9.40
2023-03-25T07:41:35.366Z,9.40
2023-03-25T07:44:02.254Z,9.30
2023-03-25T07:46:29.101Z,9.40
2023-03-25T07:48:55.983Z,9.40
2023-03-25T07:51:22.841Z,9.40
2023-03-25T07:53:49.725Z,9.40
2023-03-25T07:56:16.558Z,9.50
2023-03-25T07:58:44.525Z,9.60
2023-03-25T08:01:11.833Z,9.60
2023-03-25T08:03:39.960Z,9.60
2023-03-25T08:06:07.742Z,9.70
2023-03-25T08:08:35.443Z,9.70
2023-03-25T08:11:02.263Z,9.80
2023-03-25T08:13:29.784Z,9.80
2023-03-25T08:15:57.011Z,9.80
2023-03-25T08:18:24.212Z,9.90
2023-03-25T08:20:51.051Z,10.00
2023-03-25T08:23:20.079Z,10.00
2023-03-25T08:25:49.473Z,9.90
2023-03-25T08:28:22.419Z,9.90
2023-03-25T08:30:55.154Z,10.00
2023-03-25T08:33:27.030Z,10.00
2023-03-25T08:35:54.090Z,9.90
2023-03-25T08:38:21.467Z,10.00
2023-03-25T08:40:48.783Z,10.00
2023-03-25T08:43:15.589Z,10.10
2023-03-25T08:45:42.469Z,10.20
2023-03-25T08:48:09.300Z,10.20
2023-03-25T08:50:36.065Z,10.10
2023-03-25T08:53:02.855Z,10.10
2023-03-25T08:55:29.674Z,10.10
2023-03-25T08:57:56.472Z,10.20
2023-03-25T09:00:25.201Z,10.20
2023-03-25T09:02:52.271Z,10.20
2023-03-25T09:05:19.960Z,10.20
2023-03-25T09:07:47.054Z,10.20
2023-03-25T09:10:14.490Z,10.20
2023-03-25T09:12:42.127Z,10.20
2023-03-25T09:15:10.359Z,10.20
2023-03-25T09:17:37.400Z,10.20
2023-03-25T09:20:08.650Z,10.20
2023-03-25T09:22:38.941Z,10.20
2023-03-25T09:25:09.341Z,10.10
2023-03-25T09:27:36.749Z,10.10
2023-03-25T09:30:05.728Z,10.10
2023-03-25T09:32:32.677Z,10.10
2023-03-25T09:34:59.518Z,10.20
2023-03-25T09:37:26.355Z,10.30
2023-03-25T09:39:53.465Z,10.30
2023-03-25T09:43:08.752Z,10.40
2023-03-25T09:45:47.626Z,10.50
2023-03-25T09:48:32.295Z,10.60
2023-03-25T09:51:20.822Z,10.60
2023-03-25T09:53:50.406Z,10.80
2023-03-25T09:56:24.462Z,10.90
2023-03-25T09:58:54.742Z,10.80
2023-03-25T10:01:46.575Z,10.80
2023-03-25T10:04:19.664Z,10.70
2023-03-25T10:07:06.113Z,10.80
2023-03-25T10:09:41.993Z,10.80
2023-03-25T10:12:47.827Z,10.60
2023-03-25T10:15:21.187Z,10.50
2023-03-25T10:18:27.816Z,10.30
2023-03-25T10:21:00.251Z,10.40
2023-03-25T10:23:38.057Z,10.50
2023-03-25T10:26:15.573Z,10.60
2023-03-25T10:28:50.809Z,10.60
2023-03-25T10:31:22.081Z,10.70
2023-03-25T10:33:57.811Z,10.80
2023-03-25T10:36:35.347Z,10.90
2023-03-25T10:39:06.667Z,11.00
2023-03-25T10:41:39.206Z,11.20
2023-03-25T10:44:12.143Z,11.40
2023-03-25T10:46:49.354Z,11.50
2023-03-25T10:49:19.314Z,11.30
2023-03-25T10:51:47.955Z,11.20
2023-03-25T10:54:16.651Z,11.20
2023-03-25T10:56:49.361Z,11.10
2023-03-25T10:59:24.219Z,10.90
2023-03-25T11:01:52.473Z,10.90
2023-03-25T11:04:22.028Z,11.00
2023-03-25T11:06:55.486Z,11.10
2023-03-25T11:09:30.397Z,11.00
2023-03-25T11:12:01.141Z,11.00
2023-03-25T11:14:29.667Z,11.00
2023-03-25T11:17:01.073Z,11.20
2023-03-25T11:19:37.016Z,11.30
2023-03-25T11:22:11.397Z,11.80
2023-03-25T11:24:44.218Z,11.80
2023-03-25T11:27:17.014Z,12.00
2023-03-25T11:29:54.312Z,11.80
2023-03-25T11:32:32.021Z,11.60
2023-03-25T11:35:01.750Z,11.60
2023-03-25T11:37:32.106Z,12.20
2023-03-25T11:40:06.622Z,12.50
2023-03-25T11:42:42.943Z,12.80
2023-03-25T11:45:33.830Z,13.20
2023-03-25T11:48:11.542Z,13.30
2023-03-25T11:50:53.032Z,13.50
2023-03-25T11:53:21.711Z,12.90
2023-03-25T11:55:53.955Z,13.00
2023-03-25T11:58:27.375Z,12.90
2023-03-25T12:01:02.703Z,12.70
2023-03-25T12:03:32.288Z,12.70
2023-03-25T12:06:16.021Z,12.30
2023-03-25T12:09:00.486Z,12.20
2023-03-25T12:11:28.942Z,12.40
2023-03-25T12:14:07.587Z,12.60
2023-03-25T12:16:47.397Z,12.80
2023-03-25T12:19:59.468Z,13.20
2023-03-25T12:22:50.321Z,13.40
2023-03-25T12:25:58.105Z,13.40
2023-03-25T12:28:29.713Z,12.80
2023-03-25T12:31:31.608Z,12.70
2023-03-25T12:34:33.319Z,12.60
2023-03-25T12:37:31.734Z,12.20
2023-03-25T12:40:14.773Z,13.00
2023-03-25T12:43:06.791Z,13.60
2023-03-25T12:45:58.491Z,13.20
2023-03-25T12:48:37.423Z,13.10
2023-03-25T12:51:29.970Z,13.10
2023-03-25T12:54:27.370Z,13.00
2023-03-25T12:57:13.410Z,12.60
2023-03-25T12:59:55.390Z,12.60
2023-03-25T13:02:22.190Z,12.30
2023-03-25T13:05:27.144Z,12.20
2023-03-25T13:08:05.234Z,13.20
2023-03-25T13:10:39.789Z,13.50
2023-03-25T13:13:13.984Z,13.40
2023-03-25T13:15:45.441Z,13.00
2023-03-25T13:18:29.412Z,12.90
2023-03-25T13:21:14.234Z,12.50
2023-03-25T13:23:43.604Z,12.50
2023-03-25T13:26:14.472Z,12.50
2023-03-25T13:28:46.798Z,12.50
2023-03-25T13:31:23.068Z,12.20
2023-03-25T13:34:02.192Z,12.30
2023-03-25T13:36:34.426Z,12.30
2023-03-25T13:39:25.322Z,11.80
2023-03-25T13:42:11.161Z,11.30
2023-03-25T13:44:41.457Z,11.30
2023-03-25T13:47:39.472Z,11.20
2023-03-25T13:50:17.543Z,11.20
2023-03-25T13:52:49.277Z,11.10
2023-03-25T13:55:24.561Z,10.90
2023-03-25T13:58:18.410Z,10.80
2023-03-25T14:01:00.288Z,10.90
2023-03-25T14:04:04.936Z,10.70
2023-03-25T14:07:05.603Z,10.70
2023-03-25T14:09:58.935Z,10.70
2023-03-25T14:12:36.690Z,10.50
2023-03-25T14:15:09.205Z,10.30
2023-03-25T14:25:46.681Z,9.40
2023-03-25T14:28:19.716Z,9.20
2023-03-25T14:31:17.018Z,9.10
2023-03-25T14:34:05.380Z,9.10
2023-03-25T14:36:52.392Z,9.10
2023-03-25T14:39:27.976Z,9.20
2023-03-25T14:41:59.188Z,9.80
2023-03-25T14:44:29.323Z,10.00
2023-03-25T14:47:22.309Z,10.20
2023-03-25T14:50:09.503Z,9.90
2023-03-25T14:52:44.097Z,9.70
2023-03-25T14:55:26.050Z,9.60
2023-03-25T14:58:16.956Z,9.60
2023-03-25T15:01:10.589Z,9.60
2023-03-25T15:03:47.317Z,9.40
2023-03-25T15:06:33.442Z,9.30
2023-03-25T15:09:09.658Z,9.30
2023-03-25T15:11:39.143Z,9.30
2023-03-25T15:14:09.879Z,9.30
2023-03-25T15:16:49.712Z,9.40
2023-03-25T15:19:18.783Z,9.40
2023-03-25T15:21:57.608Z,9.30
2023-03-25T15:24:29.134Z,9.40
2023-03-25T15:26:59.385Z,9.50
2023-03-25T15:29:59.665Z,9.60
2023-03-25T15:32:44.575Z,10.30
2023-03-25T15:35:36.450Z,10.60
2023-03-25T15:38:35.712Z,10.80
2023-03-25T15:41:21.593Z,10.90
2023-03-25T15:44:01.481Z,10.70
2023-03-25T15:46:53.568Z,10.50
2023-03-25T15:49:40.374Z,10.30
2023-03-25T15:52:38.350Z,10.30
2023-03-25T15:55:21.366Z,10.50
2023-03-25T15:57:54.460Z,10.30
2023-03-25T16:00:42.227Z,10.50
2023-03-25T16:03:21.014Z,10.90
2023-03-25T16:05:53.214Z,11.10
2023-03-25T16:08:36.643Z,11.20
2023-03-25T16:11:26.937Z,11.10
2023-03-25T16:14:17.209Z,11.10
2023-03-25T16:16:51.900Z,11.20
2023-03-25T16:19:24.017Z,11.10
2023-03-25T16:21:53.189Z,11.30
2023-03-25T16:24:29.760Z,11.20
2023-03-25T16:26:56.951Z,11.00
2023-03-25T16:29:26.127Z,11.10
2023-03-25T16:32:01.630Z,11.10
2023-03-25T16:34:34.578Z,11.40
2023-03-25T16:37:03.391Z,11.40
2023-03-25T16:39:33.274Z,11.30
2023-03-25T16:42:10.942Z,11.20
2023-03-25T16:44:38.479Z,11.20
2023-03-25T16:47:05.875Z,11.20
2023-03-25T16:49:38.643Z,11.20
2023-03-25T16:52:14.214Z,11.10
2023-03-25T16:54:47.098Z,11.10
2023-03-25T16:57:29.241Z,11.10
2023-03-25T16:59:56.723Z,11.10
2023-03-25T17:02:42.346Z,11.00
2023-03-25T17:05:26.151Z,11.00
2023-03-25T17:08:04.211Z,11.00
2023-03-25T17:10:53.420Z,11.10
2023-03-25T17:13:32.729Z,11.00
2023-03-25T17:15:59.787Z,11.00
2023-03-25T17:18:31.520Z,11.00
2023-03-25T17:21:01.486Z,10.90
2023-03-25T17:23:42.485Z,10.90
2023-03-25T17:26:12.415Z,10.90
2023-03-25T17:28:43.055Z,10.80
2023-03-25T17:31:33.468Z,10.30
2023-03-25T17:34:07.708Z,10.20
2023-03-25T17:36:43.139Z,10.10
2023-03-25T17:39:30.548Z,10.10
2023-03-25T17:42:05.992Z,10.10
2023-03-25T17:44:38.600Z,10.10
2023-03-25T17:47:15.359Z,10.10
2023-03-25T17:49:42.302Z,10.10
2023-03-25T17:52:09.578Z,10.10
2023-03-25T17:54:36.895Z,10.10
2023-03-25T17:57:16.867Z,10.20
2023-03-25T17:59:44.815Z,10.10
2023-03-25T18:02:16.492Z,10.10
2023-03-25T18:04:43.553Z,10.20
2023-03-25T18:07:11.145Z,10.10
2023-03-25T18:09:39.364Z,10.20
2023-03-25T18:12:06.815Z,10.10
2023-03-25T18:14:35.415Z,10.10
2023-03-25T18:17:04.133Z,10.10
2023-03-25T18:19:32.270Z,10.20
2023-03-25T18:22:06.894Z,10.20
2023-03-25T18:24:37.744Z,10.10
2023-03-25T18:27:05.604Z,10.10
2023-03-25T18:29:32.702Z,10.10
2023-03-25T18:31:59.627Z,10.10
2023-03-25T18:34:27.722Z,10.20
2023-03-25T18:36:54.708Z,10.20
2023-03-25T18:39:24.871Z,10.20
2023-03-25T18:41:51.878Z,10.20
2023-03-25T18:44:18.893Z,10.20
2023-03-25T18:46:46.488Z,10.20
2023-03-25T18:49:18.746Z,10.20
2023-03-25T18:51:48.267Z,10.20
2023-03-25T18:54:18.408Z,10.20
2023-03-25T18:56:45.927Z,10.20
2023-03-25T18:59:21.155Z,10.20
2023-03-25T19:01:48.116Z,10.20
2023-03-25T19:04:16.352Z,10.20
2023-03-25T19:06:43.431Z,10.20
2023-03-25T19:09:18.315Z,10.20
2023-03-25T19:11:45.405Z,10.10
2023-03-25T19:14:12.347Z,9.90
2023-03-25T19:16:39.304Z,9.80
2023-03-25T19:19:06.644Z,9.70
2023-03-25T19:21:33.622Z,9.60
2023-03-25T19:24:00.755Z,9.60
2023-03-25T19:26:28.200Z,9.70
2023-03-25T19:28:55.141Z,9.60
2023-03-25T19:31:22.949Z,9.70
2023-03-25T19:33:50.929Z,9.70
2023-03-25T19:36:18.994Z,9.70
2023-03-25T19:38:46.243Z,9.80
2023-03-25T19:41:17.756Z,9.80
2023-03-25T19:43:45.117Z,9.80
2023-03-25T19:46:12.085Z,9.70
2023-03-25T19:48:39.531Z,9.60
2023-03-25T19:51:07.076Z,9.50
2023-03-25T19:53:34.123Z,9.40
2023-03-25T19:56:05.496Z,9.40
2023-03-25T19:58:34.836Z,9.40
2023-03-25T20:01:01.939Z,9.40
2023-03-25T20:03:31.460Z,9.30
2023-03-25T20:06:00.798Z,9.30
2023-03-25T20:08:29.340Z,9.30
2023-03-25T20:10:56.447Z,9.20
2023-03-25T20:13:23.293Z,9.10
2023-03-25T20:15:51.069Z,9.00
2023-03-25T20:18:18.733Z,8.70
2023-03-25T20:20:45.917Z,8.70
2023-03-25T20:37:59.050Z,8.60
2023-03-25T20:40:37.374Z,8.50
2023-03-25T20:43:13.589Z,8.40
2023-03-25T20:45:40.851Z,8.40
2023-03-25T20:48:08.826Z,8.40
2023-03-25T20:50:36.403Z,8.30
2023-03-25T20:53:04.508Z,8.40
2023-03-25T20:55:31.614Z,8.40
2023-03-25T20:57:58.496Z,8.30
2023-03-25T21:00:25.339Z,8.30
2023-03-25T21:02:52.636Z,8.10
2023-03-25T21:05:19.773Z,8.00
2023-03-25T21:07:46.999Z,7.90
2023-03-25T21:20:09.760Z,7.70
